Terminal Aerodrome Forecast
Issued by NWS

Home | Current Version | Previous Version | Text Only | Print | Product List | Glossary On
Versions: 1 2 3 4 5 6 7 8 9 10 11 12 13 14 15
621
FTUS43 KFGF 072132 AAB
TAFTVF
TAF AMD
KTVF 072132Z 0722/0818 32024G32KT 1/4SM -SN BLSN OVC008
      TEMPO 0722/0724 2SM -SN BLSN OVC012
     FM080100 33022G30KT 4SM -SN OVC015
     FM081200 33020G27KT P6SM OVC025=

USA.gov is the U.S. government's official web portal to all federal, state and local government web resources and services.